sensor_id;sensor_type;location;lat;lon;timestamp;pressure;altitude;pressure_sealevel;temperature;humidity
50356;BME280;36264;51.296;-0.602;2023-03-24T00:01:00;99289.50;;;21.72;46.05
50356;BME280;36264;51.296;-0.602;2023-03-24T00:03:26;99302.19;;;21.68;46.13
50356;BME280;36264;51.296;-0.602;2023-03-24T00:06:01;99299.75;;;21.75;45.70
50356;BME280;36264;51.296;-0.602;2023-03-24T00:08:31;99294.81;;;21.80;45.48
50356;BME280;36264;51.296;-0.602;2023-03-24T00:11:09;99294.72;;;21.64;46.08
50356;BME280;36264;51.296;-0.602;2023-03-24T00:13:36;99290.69;;;21.51;46.21
50356;BME280;36264;51.296;-0.602;2023-03-24T00:16:07;99297.34;;;21.46;46.41
50356;BME280;36264;51.296;-0.602;2023-03-24T00:18:33;99307.66;;;21.31;46.30
50356;BME280;36264;51.296;-0.602;2023-03-24T00:20:58;99304.41;;;21.37;46.40
50356;BME280;36264;51.296;-0.602;2023-03-24T00:23:28;99305.25;;;21.56;45.95
50356;BME280;36264;51.296;-0.602;2023-03-24T00:26:06;99306.88;;;21.57;46.10
50356;BME280;36264;51.296;-0.602;2023-03-24T00:28:35;99303.94;;;21.60;45.81
50356;BME280;36264;51.296;-0.602;2023-03-24T00:31:02;99315.63;;;21.39;46.09
50356;BME280;36264;51.296;-0.602;2023-03-24T00:33:29;99315.47;;;21.41;46.30
50356;BME280;36264;51.296;-0.602;2023-03-24T00:36:00;99319.94;;;21.40;46.26
50356;BME280;36264;51.296;-0.602;2023-03-24T00:38:26;99325.72;;;20.90;46.74
50356;BME280;36264;51.296;-0.602;2023-03-24T00:40:52;99332.75;;;20.99;46.75
50356;BME280;36264;51.296;-0.602;2023-03-24T00:43:18;99326.28;;;21.11;46.10
50356;BME280;36264;51.296;-0.602;2023-03-24T00:45:44;99334.28;;;21.20;46.12
50356;BME280;36264;51.296;-0.602;2023-03-24T00:48:15;99347.78;;;20.98;46.58
50356;BME280;36264;51.296;-0.602;2023-03-24T00:50:49;99352.13;;;21.08;46.65
50356;BME280;36264;51.296;-0.602;2023-03-24T00:53:16;99353.66;;;21.10;45.91
50356;BME280;36264;51.296;-0.602;2023-03-24T00:55:46;99350.19;;;21.10;46.89
50356;BME280;36264;51.296;-0.602;2023-03-24T00:58:16;99351.31;;;21.07;46.44
50356;BME280;36264;51.296;-0.602;2023-03-24T01:00:54;99351.16;;;21.27;45.96
50356;BME280;36264;51.296;-0.602;2023-03-24T01:03:20;99351.84;;;21.11;46.17
50356;BME280;36264;51.296;-0.602;2023-03-24T01:05:49;99352.25;;;21.16;45.91
50356;BME280;36264;51.296;-0.602;2023-03-24T01:08:15;99349.38;;;21.27;45.83
50356;BME280;36264;51.296;-0.602;2023-03-24T01:10:45;99360.16;;;21.34;46.08
50356;BME280;36264;51.296;-0.602;2023-03-24T01:13:23;99352.22;;;21.34;45.57
50356;BME280;36264;51.296;-0.602;2023-03-24T01:15:49;99355.47;;;21.28;45.60
50356;BME280;36264;51.296;-0.602;2023-03-24T01:18:16;99363.25;;;21.11;46.16
50356;BME280;36264;51.296;-0.602;2023-03-24T01:20:43;99366.25;;;21.16;46.07
50356;BME280;36264;51.296;-0.602;2023-03-24T01:23:16;99370.94;;;21.23;45.94
50356;BME280;36264;51.296;-0.602;2023-03-24T01:25:42;99371.41;;;20.90;46.18
50356;BME280;36264;51.296;-0.602;2023-03-24T01:28:11;99368.75;;;21.18;45.97
50356;BME280;36264;51.296;-0.602;2023-03-24T01:30:37;99373.44;;;21.06;46.09
50356;BME280;36264;51.296;-0.602;2023-03-24T01:33:03;99368.75;;;21.00;46.08
50356;BME280;36264;51.296;-0.602;2023-03-24T01:35:28;99366.28;;;20.89;46.15
50356;BME280;36264;51.296;-0.602;2023-03-24T01:37:54;99367.66;;;20.93;46.21
50356;BME280;36264;51.296;-0.602;2023-03-24T01:40:26;99370.56;;;21.17;45.65
50356;BME280;36264;51.296;-0.602;2023-03-24T01:42:51;99377.03;;;20.77;45.52
50356;BME280;36264;51.296;-0.602;2023-03-24T01:48:11;99383.19;;;20.96;45.99
50356;BME280;36264;51.296;-0.602;2023-03-24T01:50:37;99383.34;;;20.94;45.97
50356;BME280;36264;51.296;-0.602;2023-03-24T01:53:03;99385.09;;;20.86;46.04
50356;BME280;36264;51.296;-0.602;2023-03-24T01:55:30;99391.28;;;21.12;45.70
50356;BME280;36264;51.296;-0.602;2023-03-24T01:57:59;99390.38;;;21.04;45.43
50356;BME280;36264;51.296;-0.602;2023-03-24T02:00:26;99396.09;;;20.99;45.64
50356;BME280;36264;51.296;-0.602;2023-03-24T02:02:56;99390.81;;;20.99;45.57
50356;BME280;36264;51.296;-0.602;2023-03-24T02:05:25;99397.56;;;21.11;45.92
50356;BME280;36264;51.296;-0.602;2023-03-24T02:08:02;99400.56;;;20.98;46.01
50356;BME280;36264;51.296;-0.602;2023-03-24T02:10:30;99406.06;;;21.05;45.48
50356;BME280;36264;51.296;-0.602;2023-03-24T02:12:57;99421.25;;;20.93;45.56
50356;BME280;36264;51.296;-0.602;2023-03-24T02:15:25;99420.97;;;20.96;45.47
50356;BME280;36264;51.296;-0.602;2023-03-24T02:18:11;99429.84;;;21.05;45.13
50356;BME280;36264;51.296;-0.602;2023-03-24T02:23:39;99435.75;;;20.89;45.03
50356;BME280;36264;51.296;-0.602;2023-03-24T02:26:38;99425.19;;;20.89;45.84
50356;BME280;36264;51.296;-0.602;2023-03-24T02:38:13;99441.16;;;20.88;45.59
50356;BME280;36264;51.296;-0.602;2023-03-24T02:46:20;99449.97;;;20.78;45.37
50356;BME280;36264;51.296;-0.602;2023-03-24T02:54:41;99442.94;;;20.97;45.08
50356;BME280;36264;51.296;-0.602;2023-03-24T02:57:13;99448.22;;;20.97;45.15
50356;BME280;36264;51.296;-0.602;2023-03-24T02:59:56;99448.50;;;20.94;44.82
50356;BME280;36264;51.296;-0.602;2023-03-24T03:02:30;99449.72;;;20.99;44.99
50356;BME280;36264;51.296;-0.602;2023-03-24T03:05:21;99452.91;;;21.03;44.61
50356;BME280;36264;51.296;-0.602;2023-03-24T03:07:49;99451.91;;;21.04;44.78
50356;BME280;36264;51.296;-0.602;2023-03-24T03:10:23;99461.91;;;21.10;44.67
50356;BME280;36264;51.296;-0.602;2023-03-24T03:12:54;99461.50;;;21.05;44.70
50356;BME280;36264;51.296;-0.602;2023-03-24T03:15:34;99463.47;;;21.03;44.81
50356;BME280;36264;51.296;-0.602;2023-03-24T03:20:42;99468.53;;;20.87;45.02
50356;BME280;36264;51.296;-0.602;2023-03-24T03:23:16;99462.88;;;20.81;44.94
50356;BME280;36264;51.296;-0.602;2023-03-24T03:25:47;99464.69;;;20.81;44.77
50356;BME280;36264;51.296;-0.602;2023-03-24T03:28:18;99460.25;;;20.72;45.07
50356;BME280;36264;51.296;-0.602;2023-03-24T03:30:51;99464.09;;;20.87;44.69
50356;BME280;36264;51.296;-0.602;2023-03-24T03:33:20;99466.47;;;20.80;44.79
50356;BME280;36264;51.296;-0.602;2023-03-24T03:35:55;99469.97;;;20.81;44.51
50356;BME280;36264;51.296;-0.602;2023-03-24T03:41:06;99465.69;;;20.70;44.33
50356;BME280;36264;51.296;-0.602;2023-03-24T03:43:32;99472.94;;;20.68;44.66
50356;BME280;36264;51.296;-0.602;2023-03-24T03:45:59;99474.56;;;20.69;45.11
50356;BME280;36264;51.296;-0.602;2023-03-24T03:48:26;99476.38;;;20.69;45.11
50356;BME280;36264;51.296;-0.602;2023-03-24T03:50:53;99470.09;;;20.79;44.82
50356;BME280;36264;51.296;-0.602;2023-03-24T03:53:21;99468.13;;;20.81;44.99
50356;BME280;36264;51.296;-0.602;2023-03-24T03:55:48;99466.25;;;20.64;45.25
50356;BME280;36264;51.296;-0.602;2023-03-24T03:58:13;99469.75;;;20.45;45.42
50356;BME280;36264;51.296;-0.602;2023-03-24T04:00:40;99470.97;;;20.51;45.66
50356;BME280;36264;51.296;-0.602;2023-03-24T04:05:55;99463.22;;;20.39;45.89
50356;BME280;36264;51.296;-0.602;2023-03-24T04:08:33;99466.44;;;20.33;45.78
50356;BME280;36264;51.296;-0.602;2023-03-24T04:24:45;99473.75;;;20.59;45.58
50356;BME280;36264;51.296;-0.602;2023-03-24T04:30:09;99477.78;;;20.53;45.34
50356;BME280;36264;51.296;-0.602;2023-03-24T04:32:53;99473.94;;;20.28;45.83
50356;BME280;36264;51.296;-0.602;2023-03-24T04:38:01;99480.38;;;20.63;45.34
50356;BME280;36264;51.296;-0.602;2023-03-24T04:40:30;99480.28;;;20.65;45.34
50356;BME280;36264;51.296;-0.602;2023-03-24T04:42:59;99496.50;;;20.60;45.35
50356;BME280;36264;51.296;-0.602;2023-03-24T04:45:27;99490.13;;;20.53;45.15
50356;BME280;36264;51.296;-0.602;2023-03-24T04:47:59;99495.97;;;20.66;44.76
50356;BME280;36264;51.296;-0.602;2023-03-24T04:50:34;99498.63;;;20.47;45.01
50356;BME280;36264;51.296;-0.602;2023-03-24T04:53:01;99498.06;;;20.43;45.01
50356;BME280;36264;51.296;-0.602;2023-03-24T04:55:54;99501.38;;;20.55;44.99
50356;BME280;36264;51.296;-0.602;2023-03-24T04:58:22;99499.19;;;20.31;44.82
50356;BME280;36264;51.296;-0.602;2023-03-24T05:00:48;99506.56;;;20.27;45.06
50356;BME280;36264;51.296;-0.602;2023-03-24T05:03:15;99508.19;;;20.38;44.84
50356;BME280;36264;51.296;-0.602;2023-03-24T05:05:46;99512.78;;;20.45;43.87
50356;BME280;36264;51.296;-0.602;2023-03-24T05:08:12;99517.94;;;20.18;44.47
50356;BME280;36264;51.296;-0.602;2023-03-24T05:10:38;99515.59;;;20.15;44.60
50356;BME280;36264;51.296;-0.602;2023-03-24T05:13:05;99534.19;;;20.13;44.61
50356;BME280;36264;51.296;-0.602;2023-03-24T05:15:31;99532.09;;;19.97;44.79
50356;BME280;36264;51.296;-0.602;2023-03-24T05:17:57;99528.47;;;19.88;45.13
50356;BME280;36264;51.296;-0.602;2023-03-24T05:20:23;99529.31;;;19.99;45.23
50356;BME280;36264;51.296;-0.602;2023-03-24T05:22:49;99527.38;;;20.11;44.98
50356;BME280;36264;51.296;-0.602;2023-03-24T05:25:16;99528.78;;;20.05;44.72
50356;BME280;36264;51.296;-0.602;2023-03-24T05:27:42;99540.00;;;20.07;44.88
50356;BME280;36264;51.296;-0.602;2023-03-24T05:30:08;99541.81;;;20.06;44.84
50356;BME280;36264;51.296;-0.602;2023-03-24T05:32:34;99540.00;;;20.07;44.98
50356;BME280;36264;51.296;-0.602;2023-03-24T05:34:59;99548.31;;;20.02;45.15
50356;BME280;36264;51.296;-0.602;2023-03-24T05:37:25;99543.31;;;19.99;45.08
50356;BME280;36264;51.296;-0.602;2023-03-24T05:39:52;99545.28;;;20.17;44.83
50356;BME280;36264;51.296;-0.602;2023-03-24T05:42:17;99542.22;;;20.12;44.59
50356;BME280;36264;51.296;-0.602;2023-03-24T05:44:43;99543.31;;;20.09;44.81
50356;BME280;36264;51.296;-0.602;2023-03-24T05:47:10;99543.03;;;20.12;44.92
50356;BME280;36264;51.296;-0.602;2023-03-24T05:49:36;99544.84;;;20.12;44.69
50356;BME280;36264;51.296;-0.602;2023-03-24T05:52:02;99549.13;;;20.13;44.87
50356;BME280;36264;51.296;-0.602;2023-03-24T05:54:27;99551.50;;;20.16;44.60
50356;BME280;36264;51.296;-0.602;2023-03-24T05:56:53;99559.53;;;20.14;44.57
50356;BME280;36264;51.296;-0.602;2023-03-24T05:59:18;99546.50;;;20.13;44.74
50356;BME280;36264;51.296;-0.602;2023-03-24T06:01:43;99547.34;;;20.13;44.60
50356;BME280;36264;51.296;-0.602;2023-03-24T06:04:09;99558.72;;;20.14;44.57
50356;BME280;36264;51.296;-0.602;2023-03-24T06:06:34;99561.38;;;20.14;44.50
50356;BME280;36264;51.296;-0.602;2023-03-24T06:09:03;99553.03;;;20.08;44.93
50356;BME280;36264;51.296;-0.602;2023-03-24T06:11:29;99558.44;;;20.17;44.93
50356;BME280;36264;51.296;-0.602;2023-03-24T06:13:54;99560.41;;;20.24;44.82
50356;BME280;36264;51.296;-0.602;2023-03-24T06:16:25;99559.56;;;20.43;44.87
50356;BME280;36264;51.296;-0.602;2023-03-24T06:18:51;99558.28;;;20.38;45.08
50356;BME280;36264;51.296;-0.602;2023-03-24T06:21:17;99561.22;;;20.44;44.84
50356;BME280;36264;51.296;-0.602;2023-03-24T06:23:43;99553.75;;;20.40;44.86
50356;BME280;36264;51.296;-0.602;2023-03-24T06:26:10;99565.63;;;20.54;45.13
50356;BME280;36264;51.296;-0.602;2023-03-24T06:28:36;99559.13;;;20.48;44.96
50356;BME280;36264;51.296;-0.602;2023-03-24T06:31:04;99563.00;;;20.54;45.60
50356;BME280;36264;51.296;-0.602;2023-03-24T06:33:31;99564.56;;;20.47;45.66
50356;BME280;36264;51.296;-0.602;2023-03-24T06:35:56;99565.09;;;20.40;45.97
50356;BME280;36264;51.296;-0.602;2023-03-24T06:38:22;99560.09;;;20.47;45.90
50356;BME280;36264;51.296;-0.602;2023-03-24T06:40:47;99564.25;;;20.59;45.63
50356;BME280;36264;51.296;-0.602;2023-03-24T06:43:12;99559.00;;;20.69;45.58
50356;BME280;36264;51.296;-0.602;2023-03-24T06:45:38;99563.72;;;20.66;45.82
50356;BME280;36264;51.296;-0.602;2023-03-24T06:48:04;99554.81;;;20.76;45.86
50356;BME280;36264;51.296;-0.602;2023-03-24T06:50:30;99559.53;;;20.73;45.99
50356;BME280;36264;51.296;-0.602;2023-03-24T06:52:59;99564.81;;;20.83;45.84
50356;BME280;36264;51.296;-0.602;2023-03-24T06:55:25;99564.09;;;20.80;45.97
50356;BME280;36264;51.296;-0.602;2023-03-24T06:57:51;99562.44;;;20.70;45.83
50356;BME280;36264;51.296;-0.602;2023-03-24T07:00:16;99567.44;;;20.63;46.08
50356;BME280;36264;51.296;-0.602;2023-03-24T07:02:42;99565.94;;;20.70;46.22
50356;BME280;36264;51.296;-0.602;2023-03-24T07:05:08;99567.84;;;20.88;45.67
50356;BME280;36264;51.296;-0.602;2023-03-24T07:07:35;99568.66;;;20.88;45.85
50356;BME280;36264;51.296;-0.602;2023-03-24T07:10:01;99568.13;;;20.85;45.97
50356;BME280;36264;51.296;-0.602;2023-03-24T07:12:27;99571.19;;;20.51;45.96
50356;BME280;36264;51.296;-0.602;2023-03-24T07:14:53;99570.94;;;20.73;46.19
50356;BME280;36264;51.296;-0.602;2023-03-24T07:17:20;99571.75;;;20.74;46.19
50356;BME280;36264;51.296;-0.602;2023-03-24T07:19:45;99584.56;;;20.49;46.38
50356;BME280;36264;51.296;-0.602;2023-03-24T07:22:11;99591.34;;;20.71;45.97
50356;BME280;36264;51.296;-0.602;2023-03-24T07:24:36;99590.66;;;20.69;45.60
50356;BME280;36264;51.296;-0.602;2023-03-24T07:27:02;99583.13;;;20.94;45.78
50356;BME280;36264;51.296;-0.602;2023-03-24T07:29:28;99603.03;;;20.69;45.55
50356;BME280;36264;51.296;-0.602;2023-03-24T07:31:53;99593.56;;;20.47;46.54
50356;BME280;36264;51.296;-0.602;2023-03-24T07:34:23;99589.94;;;20.87;45.76
50356;BME280;36264;51.296;-0.602;2023-03-24T07:36:48;99590.59;;;20.89;45.55
50356;BME280;36264;51.296;-0.602;2023-03-24T07:39:14;99591.31;;;20.91;45.93
50356;BME280;36264;51.296;-0.602;2023-03-24T07:41:39;99591.75;;;20.76;45.63
50356;BME280;36264;51.296;-0.602;2023-03-24T07:44:05;99604.13;;;20.66;45.78
50356;BME280;36264;51.296;-0.602;2023-03-24T07:46:31;99587.13;;;20.98;45.54
50356;BME280;36264;51.296;-0.602;2023-03-24T07:48:56;99595.44;;;21.13;45.32
50356;BME280;36264;51.296;-0.602;2023-03-24T07:51:21;99596.50;;;21.20;45.56
50356;BME280;36264;51.296;-0.602;2023-03-24T07:53:47;99591.75;;;21.33;45.13
50356;BME280;36264;51.296;-0.602;2023-03-24T07:56:13;99600.09;;;21.29;44.72
50356;BME280;36264;51.296;-0.602;2023-03-24T07:58:39;99608.13;;;21.37;45.01
50356;BME280;36264;51.296;-0.602;2023-03-24T08:01:07;99613.56;;;21.63;44.79
50356;BME280;36264;51.296;-0.602;2023-03-24T08:03:36;99622.41;;;21.54;44.97
50356;BME280;36264;51.296;-0.602;2023-03-24T08:06:03;99616.16;;;21.45;45.11
50356;BME280;36264;51.296;-0.602;2023-03-24T08:08:30;99612.97;;;21.42;44.83
50356;BME280;36264;51.296;-0.602;2023-03-24T08:10:56;99621.84;;;21.50;44.95
50356;BME280;36264;51.296;-0.602;2023-03-24T08:13:21;99625.28;;;21.61;44.36
50356;BME280;36264;51.296;-0.602;2023-03-24T08:15:47;99625.44;;;21.12;44.59
50356;BME280;36264;51.296;-0.602;2023-03-24T08:18:12;99619.34;;;21.59;44.87
50356;BME280;36264;51.296;-0.602;2023-03-24T08:20:38;99629.94;;;21.39;45.63
50356;BME280;36264;51.296;-0.602;2023-03-24T08:23:03;99627.00;;;21.42;44.10
50356;BME280;36264;51.296;-0.602;2023-03-24T08:25:30;99628.69;;;21.71;44.87
50356;BME280;36264;51.296;-0.602;2023-03-24T08:27:56;99628.16;;;21.67;44.79
50356;BME280;36264;51.296;-0.602;2023-03-24T08:30:23;99636.13;;;21.85;45.03
50356;BME280;36264;51.296;-0.602;2023-03-24T08:33:00;99636.19;;;22.03;44.71
50356;BME280;36264;51.296;-0.602;2023-03-24T08:35:33;99635.81;;;22.16;44.61
50356;BME280;36264;51.296;-0.602;2023-03-24T08:38:03;99641.41;;;22.13;44.70
50356;BME280;36264;51.296;-0.602;2023-03-24T08:40:28;99638.31;;;22.00;44.51
50356;BME280;36264;51.296;-0.602;2023-03-24T08:42:58;99637.31;;;22.01;44.65
50356;BME280;36264;51.296;-0.602;2023-03-24T08:45:26;99643.69;;;22.08;44.79
50356;BME280;36264;51.296;-0.602;2023-03-24T08:47:53;99642.06;;;21.97;45.06
50356;BME280;36264;51.296;-0.602;2023-03-24T08:50:21;99643.38;;;22.11;44.55
50356;BME280;36264;51.296;-0.602;2023-03-24T08:52:48;99631.28;;;22.08;44.71
50356;BME280;36264;51.296;-0.602;2023-03-24T08:55:16;99647.84;;;22.29;44.33
50356;BME280;36264;51.296;-0.602;2023-03-24T08:57:42;99643.09;;;22.14;44.34
50356;BME280;36264;51.296;-0.602;2023-03-24T09:00:08;99649.13;;;22.24;44.41
50356;BME280;36264;51.296;-0.602;2023-03-24T09:02:40;99636.41;;;22.38;44.39
50356;BME280;36264;51.296;-0.602;2023-03-24T09:05:06;99651.91;;;22.23;44.29
50356;BME280;36264;51.296;-0.602;2023-03-24T09:22:36;99647.16;;;22.08;42.90
50356;BME280;36264;51.296;-0.602;2023-03-24T09:25:02;99646.19;;;22.10;44.11
50356;BME280;36264;51.296;-0.602;2023-03-24T09:27:27;99664.81;;;22.36;43.54
50356;BME280;36264;51.296;-0.602;2023-03-24T09:29:53;99664.72;;;22.46;43.55
50356;BME280;36264;51.296;-0.602;2023-03-24T09:32:18;99655.22;;;22.53;43.74
50356;BME280;36264;51.296;-0.602;2023-03-24T09:34:43;99659.97;;;22.03;44.04
50356;BME280;36264;51.296;-0.602;2023-03-24T09:37:09;99664.72;;;22.46;43.82
50356;BME280;36264;51.296;-0.602;2023-03-24T09:39:35;99654.38;;;22.70;42.72
50356;BME280;36264;51.296;-0.602;2023-03-24T09:42:03;99662.78;;;22.66;43.04
50356;BME280;36264;51.296;-0.602;2023-03-24T09:44:39;99652.94;;;22.58;41.56
50356;BME280;36264;51.296;-0.602;2023-03-24T09:52:48;99655.25;;;22.79;42.04
50356;BME280;36264;51.296;-0.602;2023-03-24T09:55:22;99659.19;;;23.11;40.06
50356;BME280;36264;51.296;-0.602;2023-03-24T09:57:49;99669.13;;;23.17;41.35
50356;BME280;36264;51.296;-0.602;2023-03-24T10:00:25;99656.78;;;23.26;40.27
50356;BME280;36264;51.296;-0.602;2023-03-24T10:02:53;99653.78;;;23.21;40.16
50356;BME280;36264;51.296;-0.602;2023-03-24T10:05:27;99665.03;;;23.23;40.91
50356;BME280;36264;51.296;-0.602;2023-03-24T10:07:55;99669.81;;;23.01;40.86
50356;BME280;36264;51.296;-0.602;2023-03-24T10:10:43;99662.03;;;23.18;38.24
50356;BME280;36264;51.296;-0.602;2023-03-24T10:16:06;99668.66;;;23.48;39.50
50356;BME280;36264;51.296;-0.602;2023-03-24T10:18:42;99672.56;;;23.36;39.55
50356;BME280;36264;51.296;-0.602;2023-03-24T10:21:18;99651.56;;;23.42;38.50
50356;BME280;36264;51.296;-0.602;2023-03-24T10:23:53;99653.38;;;23.33;39.48
50356;BME280;36264;51.296;-0.602;2023-03-24T10:29:22;99658.28;;;23.63;38.64
50356;BME280;36264;51.296;-0.602;2023-03-24T10:32:01;99651.41;;;23.44;38.08
50356;BME280;36264;51.296;-0.602;2023-03-24T10:34:29;99651.19;;;23.29;39.19
50356;BME280;36264;51.296;-0.602;2023-03-24T10:36:59;99652.31;;;23.26;39.54
50356;BME280;36264;51.296;-0.602;2023-03-24T10:39:28;99647.91;;;22.91;38.81
50356;BME280;36264;51.296;-0.602;2023-03-24T10:41:54;99652.28;;;23.00;39.84
50356;BME280;36264;51.296;-0.602;2023-03-24T10:44:21;99651.88;;;23.39;40.30
50356;BME280;36264;51.296;-0.602;2023-03-24T10:46:53;99644.31;;;23.44;38.21
50356;BME280;36264;51.296;-0.602;2023-03-24T10:49:20;99647.00;;;23.52;39.98
50356;BME280;36264;51.296;-0.602;2023-03-24T10:51:51;99642.53;;;23.87;39.51
50356;BME280;36264;51.296;-0.602;2023-03-24T10:54:25;99644.53;;;23.94;38.67
50356;BME280;36264;51.296;-0.602;2023-03-24T10:57:14;99639.25;;;23.94;37.76
50356;BME280;36264;51.296;-0.602;2023-03-24T10:59:56;99646.66;;;23.90;38.06
50356;BME280;36264;51.296;-0.602;2023-03-24T11:02:29;99651.25;;;23.80;38.19
50356;BME280;36264;51.296;-0.602;2023-03-24T11:07:31;99653.94;;;23.19;37.36
50356;BME280;36264;51.296;-0.602;2023-03-24T11:15:22;99671.25;;;22.51;40.81
50356;BME280;36264;51.296;-0.602;2023-03-24T11:18:36;99661.94;;;22.65;40.74
50356;BME280;36264;51.296;-0.602;2023-03-24T11:20:46;99662.38;;;22.78;40.81
50356;BME280;36264;51.296;-0.602;2023-03-24T11:23:20;99671.44;;;22.76;40.81
50356;BME280;36264;51.296;-0.602;2023-03-24T11:26:01;99678.88;;;22.90;40.97
50356;BME280;36264;51.296;-0.602;2023-03-24T11:28:27;99660.25;;;22.82;41.50
50356;BME280;36264;51.296;-0.602;2023-03-24T11:30:53;99650.41;;;22.92;41.67
50356;BME280;36264;51.296;-0.602;2023-03-24T11:33:29;99655.97;;;23.07;42.02
50356;BME280;36264;51.296;-0.602;2023-03-24T11:35:57;99653.25;;;22.55;42.95
50356;BME280;36264;51.296;-0.602;2023-03-24T11:38:31;99649.44;;;22.75;42.64
50356;BME280;36264;51.296;-0.602;2023-03-24T11:40:59;99651.69;;;22.88;42.42
50356;BME280;36264;51.296;-0.602;2023-03-24T11:43:33;99662.56;;;22.59;43.60
50356;BME280;36264;51.296;-0.602;2023-03-24T11:46:04;99647.88;;;22.83;42.98
50356;BME280;36264;51.296;-0.602;2023-03-24T11:51:16;99663.31;;;22.23;44.45
50356;BME280;36264;51.296;-0.602;2023-03-24T11:53:50;99658.78;;;22.43;44.15
50356;BME280;36264;51.296;-0.602;2023-03-24T11:59:01;99641.69;;;22.38;44.87
50356;BME280;36264;51.296;-0.602;2023-03-24T12:01:36;99638.75;;;22.59;44.35
50356;BME280;36264;51.296;-0.602;2023-03-24T12:07:39;99633.88;;;22.72;46.23
50356;BME280;36264;51.296;-0.602;2023-03-24T12:13:35;99636.34;;;22.20;45.42
50356;BME280;36264;51.296;-0.602;2023-03-24T12:19:07;99645.13;;;21.75;46.42
50356;BME280;36264;51.296;-0.602;2023-03-24T12:21:54;99643.16;;;21.77;48.86
50356;BME280;36264;51.296;-0.602;2023-03-24T12:26:57;99640.72;;;21.65;49.52
50356;BME280;36264;51.296;-0.602;2023-03-24T12:35:26;99653.91;;;20.20;50.80
50356;BME280;36264;51.296;-0.602;2023-03-24T12:38:09;99644.16;;;20.01;49.76
50356;BME280;36264;51.296;-0.602;2023-03-24T12:44:01;99620.63;;;20.49;50.72
50356;BME280;36264;51.296;-0.602;2023-03-24T12:46:38;99619.66;;;20.30;49.02
50356;BME280;36264;51.296;-0.602;2023-03-24T12:57:00;99596.13;;;21.05;49.95
50356;BME280;36264;51.296;-0.602;2023-03-24T12:59:37;99590.50;;;21.28;49.37
50356;BME280;36264;51.296;-0.602;2023-03-24T13:02:15;99593.34;;;21.54;51.28
50356;BME280;36264;51.296;-0.602;2023-03-24T13:04:46;99585.13;;;21.57;49.84
50356;BME280;36264;51.296;-0.602;2023-03-24T13:07:18;99588.38;;;21.97;49.60
50356;BME280;36264;51.296;-0.602;2023-03-24T13:10:13;99586.84;;;21.94;53.61
50356;BME280;36264;51.296;-0.602;2023-03-24T13:12:45;99591.13;;;21.77;51.11
50356;BME280;36264;51.296;-0.602;2023-03-24T13:15:18;99579.69;;;22.22;50.35
50356;BME280;36264;51.296;-0.602;2023-03-24T13:20:48;99577.88;;;22.23;50.65
50356;BME280;36264;51.296;-0.602;2023-03-24T13:23:47;99563.34;;;22.09;51.02
50356;BME280;36264;51.296;-0.602;2023-03-24T13:26:38;99567.66;;;22.28;51.24
50356;BME280;36264;51.296;-0.602;2023-03-24T13:29:20;99562.16;;;22.57;51.45
50356;BME280;36264;51.296;-0.602;2023-03-24T13:32:03;99562.84;;;22.41;50.67
50356;BME280;36264;51.296;-0.602;2023-03-24T13:37:22;99557.69;;;22.58;50.83
50356;BME280;36264;51.296;-0.602;2023-03-24T13:39:56;99572.22;;;22.80;50.52
50356;BME280;36264;51.296;-0.602;2023-03-24T13:42:30;99551.28;;;22.95;50.47
50356;BME280;36264;51.296;-0.602;2023-03-24T13:44:58;99560.75;;;23.24;50.43
50356;BME280;36264;51.296;-0.602;2023-03-24T13:47:24;99572.50;;;23.21;50.21
50356;BME280;36264;51.296;-0.602;2023-03-24T13:50:03;99579.50;;;23.30;48.27
50356;BME280;36264;51.296;-0.602;2023-03-24T13:52:37;99578.34;;;23.07;49.22
50356;BME280;36264;51.296;-0.602;2023-03-24T13:55:37;99561.16;;;23.45;48.51
50356;BME280;36264;51.296;-0.602;2023-03-24T13:58:08;99562.19;;;23.44;47.64
50356;BME280;36264;51.296;-0.602;2023-03-24T14:03:41;99557.13;;;23.33;47.17
50356;BME280;36264;51.296;-0.602;2023-03-24T14:06:08;99552.06;;;23.40;48.75
50356;BME280;36264;51.296;-0.602;2023-03-24T14:09:12;99555.94;;;23.19;48.39
50356;BME280;36264;51.296;-0.602;2023-03-24T14:19:24;99543.16;;;23.14;46.73
50356;BME280;36264;51.296;-0.602;2023-03-24T14:22:12;99542.09;;;23.07;46.29
50356;BME280;36264;51.296;-0.602;2023-03-24T14:24:40;99548.88;;;23.36;47.21
50356;BME280;36264;51.296;-0.602;2023-03-24T14:29:57;99542.38;;;23.81;46.93
50356;BME280;36264;51.296;-0.602;2023-03-24T14:32:24;99535.81;;;24.02;46.64
50356;BME280;36264;51.296;-0.602;2023-03-24T14:34:53;99541.94;;;23.94;46.69
50356;BME280;36264;51.296;-0.602;2023-03-24T14:37:22;99538.47;;;23.94;46.75
50356;BME280;36264;51.296;-0.602;2023-03-24T14:39:49;99544.31;;;24.22;46.19
50356;BME280;36264;51.296;-0.602;2023-03-24T14:45:39;99559.44;;;23.70;44.86
50356;BME280;36264;51.296;-0.602;2023-03-24T14:48:30;99544.47;;;23.53;45.06
50356;BME280;36264;51.296;-0.602;2023-03-24T14:51:00;99546.19;;;23.79;45.66
50356;BME280;36264;51.296;-0.602;2023-03-24T14:53:28;99546.34;;;23.77;45.49
50356;BME280;36264;51.296;-0.602;2023-03-24T14:55:54;99542.88;;;23.77;45.82
50356;BME280;36264;51.296;-0.602;2023-03-24T14:58:28;99539.69;;;22.88;44.45
50356;BME280;36264;51.296;-0.602;2023-03-24T15:00:57;99531.72;;;23.14;45.02
50356;BME280;36264;51.296;-0.602;2023-03-24T15:03:36;99532.25;;;22.91;43.08
50356;BME280;36264;51.296;-0.602;2023-03-24T15:06:11;99530.16;;;23.38;45.03
50356;BME280;36264;51.296;-0.602;2023-03-24T15:08:37;99539.91;;;23.03;45.36
50356;BME280;36264;51.296;-0.602;2023-03-24T15:11:05;99535.28;;;23.31;45.00
50356;BME280;36264;51.296;-0.602;2023-03-24T15:18:34;99548.63;;;23.13;43.11
50356;BME280;36264;51.296;-0.602;2023-03-24T15:21:00;99526.47;;;23.22;44.71
50356;BME280;36264;51.296;-0.602;2023-03-24T15:23:26;99519.16;;;23.59;44.35
50356;BME280;36264;51.296;-0.602;2023-03-24T15:25:55;99520.88;;;23.84;44.29
50356;BME280;36264;51.296;-0.602;2023-03-24T15:30:48;99508.47;;;24.51;44.03
50356;BME280;36264;51.296;-0.602;2023-03-24T15:33:13;99502.31;;;24.67;43.63
50356;BME280;36264;51.296;-0.602;2023-03-24T15:35:39;99517.25;;;24.43;43.59
50356;BME280;36264;51.296;-0.602;2023-03-24T15:38:05;99521.91;;;24.16;40.46